Time;durP1;ratioP1;P1;durP2;ratioP2;P2;SDS_P1;SDS_P2;PMS_P1;PMS_P2;Temp;Humidity;BMP_temperature;BMP_pressure;BME280_temperature;BME280_humidity;BME280_pressure;Samples;Min_cycle;Max_cycle;Signal;HPM_P1;HPM_P2
2022/07/31 00:01:55;;;;;;;2.95;1.88;;;;;;;;;;5041778;28;20042;-87
2022/07/31 00:04:22;;;;;;;3.83;1.63;;;;;;;;;;5038989;28;20044;-82
2022/07/31 00:06:49;;;;;;;2.90;1.70;;;;;;;;;;5030268;28;20128;-87
2022/07/31 00:09:14;;;;;;;3.85;1.90;;;;;;;;;;5044407;28;20035;-88
2022/07/31 00:11:41;;;;;;;2.00;1.48;;;;;;;;;;5023167;28;20024;-88
2022/07/31 00:14:07;;;;;;;3.55;1.90;;;;;;;;;;5039011;28;20037;-82
2022/07/31 00:16:32;;;;;;;3.47;1.98;;;;;;;;;;5043843;28;20028;-84
2022/07/31 00:18:57;;;;;;;2.17;1.60;;;;;;;;;;5049478;28;20032;-85
2022/07/31 00:21:23;;;;;;;2.88;1.80;;;;;;;;;;5041315;28;20079;-80
2022/07/31 00:23:48;;;;;;;4.25;2.00;;;;;;;;;;5027285;28;20051;-83
2022/07/31 00:26:14;;;;;;;5.90;1.90;;;;;;;;;;5043430;28;20035;-80
2022/07/31 00:28:40;;;;;;;6.18;2.03;;;;;;;;;;5041293;28;20089;-84
2022/07/31 00:31:05;;;;;;;3.75;2.10;;;;;;;;;;5041573;28;20051;-85
2022/07/31 00:33:30;;;;;;;2.35;1.88;;;;;;;;;;5043107;28;20151;-82
2022/07/31 00:35:56;;;;;;;2.55;1.88;;;;;;;;;;5043016;28;20032;-81
2022/07/31 00:38:21;;;;;;;4.18;2.00;;;;;;;;;;5031472;28;20399;-81
2022/07/31 00:40:50;;;;;;;2.53;1.88;;;;;;;;;;5040017;28;20033;-83
2022/07/31 00:43:17;;;;;;;5.88;2.13;;;;;;;;;;5038884;28;20379;-82
2022/07/31 00:45:44;;;;;;;3.40;2.17;;;;;;;;;;5032266;28;20061;-83
2022/07/31 00:48:09;;;;;;;2.63;1.70;;;;;;;;;;5032272;28;20022;-82
2022/07/31 00:50:35;;;;;;;2.28;1.90;;;;;;;;;;5039720;28;20028;-81
2022/07/31 00:53:01;;;;;;;4.25;2.00;;;;;;;;;;5025067;28;20021;-82
2022/07/31 00:55:26;;;;;;;5.18;2.10;;;;;;;;;;5029245;28;20043;-81
2022/07/31 00:57:51;;;;;;;3.53;2.20;;;;;;;;;;5020050;28;20028;-82
2022/07/31 01:00:17;;;;;;;3.03;1.95;;;;;;;;;;5032519;28;20021;-81
2022/07/31 01:02:42;;;;;;;3.05;1.83;;;;;;;;;;5035136;28;20017;-83
2022/07/31 01:05:08;;;;;;;1.60;1.50;;;;;;;;;;5033498;28;20277;-82
2022/07/31 01:07:34;;;;;;;2.17;1.55;;;;;;;;;;5024360;28;20036;-83
2022/07/31 01:10:05;;;;;;;4.97;2.00;;;;;;;;;;5014193;28;20030;-81
2022/07/31 01:12:37;;;;;;;2.03;1.83;;;;;;;;;;5031071;28;20013;-83
2022/07/31 01:15:06;;;;;;;;;;;;;;;;;;5037237;28;20331;-82
2022/07/31 01:17:35;;;;;;;3.15;1.75;;;;;;;;;;5034578;28;19920;-84
2022/07/31 01:20:01;;;;;;;2.15;1.70;;;;;;;;;;5036711;28;20056;-82
2022/07/31 01:22:49;;;;;;;2.47;1.92;;;;;;;;;;5036578;28;20029;-84
2022/07/31 01:25:36;;;;;;;5.45;2.50;;;;;;;;;;5034366;28;20068;-82
2022/07/31 01:28:16;;;;;;;2.97;2.13;;;;;;;;;;5048394;28;20045;-82
2022/07/31 01:30:50;;;;;;;2.03;1.90;;;;;;;;;;5053995;28;20036;-81
2022/07/31 01:33:19;;;;;;;3.88;2.13;;;;;;;;;;5042883;28;20033;-82
2022/07/31 01:35:52;;;;;;;4.47;2.15;;;;;;;;;;5033360;28;20018;-84
2022/07/31 01:38:24;;;;;;;3.72;1.80;;;;;;;;;;5020489;28;20033;-84
2022/07/31 01:41:06;;;;;;;2.63;1.88;;;;;;;;;;5039957;28;20105;-83
2022/07/31 01:43:36;;;;;;;4.53;1.98;;;;;;;;;;5043997;28;20029;-83
2022/07/31 01:46:14;;;;;;;1.90;1.70;;;;;;;;;;5040988;28;20045;-84
2022/07/31 01:48:41;;;;;;;5.95;2.40;;;;;;;;;;5038101;28;21054;-83
2022/07/31 01:51:08;;;;;;;2.35;1.63;;;;;;;;;;5041073;28;20076;-84
2022/07/31 01:53:35;;;;;;;3.72;1.88;;;;;;;;;;5055347;28;20025;-83
2022/07/31 01:56:01;;;;;;;4.60;2.13;;;;;;;;;;5047672;28;20112;-84
2022/07/31 01:58:31;;;;;;;7.22;1.95;;;;;;;;;;5051953;28;20029;-82
2022/07/31 02:00:59;;;;;;;2.10;1.90;;;;;;;;;;5046880;28;20052;-83
2022/07/31 02:03:26;;;;;;;6.63;2.20;;;;;;;;;;5040013;28;20040;-83
2022/07/31 02:05:52;;;;;;;2.90;1.95;;;;;;;;;;5039780;28;20026;-83
2022/07/31 02:08:19;;;;;;;3.22;1.83;;;;;;;;;;5037183;28;20065;-83
2022/07/31 02:10:45;;;;;;;3.33;2.05;;;;;;;;;;5055338;28;20029;-83
2022/07/31 02:13:13;;;;;;;4.65;2.22;;;;;;;;;;5059800;28;20100;-84
2022/07/31 02:15:41;;;;;;;3.83;2.00;;;;;;;;;;5056816;28;20052;-83
2022/07/31 02:18:08;;;;;;;3.47;2.00;;;;;;;;;;5042952;28;20334;-83
2022/07/31 02:20:35;;;;;;;2.15;1.85;;;;;;;;;;5024366;28;20024;-83
2022/07/31 02:23:01;;;;;;;3.13;1.90;;;;;;;;;;5041089;28;20040;-84
2022/07/31 02:25:27;;;;;;;2.42;2.05;;;;;;;;;;5034556;28;20025;-84
2022/07/31 02:27:55;;;;;;;3.03;2.30;;;;;;;;;;5030198;28;20155;-84
2022/07/31 02:30:22;;;;;;;4.53;2.10;;;;;;;;;;5033382;28;20033;-82
2022/07/31 02:32:48;;;;;;;2.17;1.90;;;;;;;;;;5052341;28;20030;-83
2022/07/31 02:35:16;;;;;;;2.30;2.10;;;;;;;;;;5017760;28;20083;-80
2022/07/31 02:37:43;;;;;;;3.80;1.92;;;;;;;;;;5035860;28;20057;-83
2022/07/31 02:40:11;;;;;;;2.95;2.05;;;;;;;;;;5028393;28;20528;-82
2022/07/31 02:42:37;;;;;;;2.90;1.95;;;;;;;;;;5042699;28;20029;-82
2022/07/31 02:45:04;;;;;;;2.40;1.92;;;;;;;;;;5038695;28;20033;-82
2022/07/31 02:47:31;;;;;;;2.33;2.00;;;;;;;;;;5034327;28;20455;-82
2022/07/31 02:49:57;;;;;;;2.72;2.08;;;;;;;;;;5045434;28;20040;-80
2022/07/31 02:52:23;;;;;;;3.88;2.40;;;;;;;;;;5037529;28;20029;-82
2022/07/31 02:54:49;;;;;;;2.22;2.05;;;;;;;;;;5033822;28;20126;-81
2022/07/31 02:57:16;;;;;;;4.60;2.72;;;;;;;;;;5037964;28;20056;-83
2022/07/31 02:59:42;;;;;;;3.53;2.53;;;;;;;;;;5036423;28;20028;-83
2022/07/31 03:02:08;;;;;;;2.65;2.40;;;;;;;;;;5058407;28;20487;-83
2022/07/31 03:04:34;;;;;;;4.38;2.58;;;;;;;;;;5023278;28;20040;-83
2022/07/31 03:07:00;;;;;;;4.18;2.28;;;;;;;;;;5030861;28;20033;-81
2022/07/31 03:09:26;;;;;;;4.22;2.80;;;;;;;;;;5047995;28;20085;-83
2022/07/31 03:11:52;;;;;;;4.97;2.70;;;;;;;;;;5026024;28;20013;-82
2022/07/31 03:14:17;;;;;;;5.15;2.70;;;;;;;;;;5034871;28;20033;-83
2022/07/31 03:16:45;;;;;;;3.78;2.22;;;;;;;;;;5031618;28;20032;-83
2022/07/31 03:19:11;;;;;;;3.47;2.85;;;;;;;;;;5044801;28;20021;-83
2022/07/31 03:21:37;;;;;;;2.70;2.50;;;;;;;;;;5042236;28;20021;-83
2022/07/31 03:24:03;;;;;;;3.28;2.75;;;;;;;;;;5027139;28;20426;-83
2022/07/31 03:26:29;;;;;;;3.50;2.65;;;;;;;;;;5035010;28;20026;-82
2022/07/31 03:28:54;;;;;;;4.28;2.88;;;;;;;;;;5042986;28;20032;-83
2022/07/31 03:31:20;;;;;;;5.22;3.25;;;;;;;;;;5045656;28;20029;-83
2022/07/31 03:33:45;;;;;;;5.68;3.10;;;;;;;;;;5031311;28;20037;-83
2022/07/31 03:36:11;;;;;;;5.22;3.05;;;;;;;;;;5021865;28;20049;-84
2022/07/31 03:38:37;;;;;;;3.92;3.05;;;;;;;;;;5046913;28;20029;-84
2022/07/31 03:41:02;;;;;;;4.03;3.00;;;;;;;;;;5025849;28;20044;-83
2022/07/31 03:43:30;;;;;;;3.90;3.17;;;;;;;;;;5042671;28;20033;-84
2022/07/31 03:45:57;;;;;;;3.25;2.60;;;;;;;;;;5041321;28;20080;-84
2022/07/31 03:48:23;;;;;;;4.60;2.60;;;;;;;;;;5041561;28;20522;-84
2022/07/31 03:50:49;;;;;;;3.40;2.50;;;;;;;;;;5047899;28;20077;-84
2022/07/31 03:53:15;;;;;;;4.55;2.85;;;;;;;;;;5046817;28;20031;-84
2022/07/31 03:55:42;;;;;;;5.47;2.60;;;;;;;;;;5043411;28;20045;-84
2022/07/31 03:58:08;;;;;;;3.75;3.00;;;;;;;;;;5041686;28;20105;-84
2022/07/31 04:00:35;;;;;;;2.92;2.58;;;;;;;;;;5041726;28;20264;-84
2022/07/31 04:03:06;;;;;;;3.42;2.70;;;;;;;;;;5023369;28;20025;-84
2022/07/31 04:05:31;;;;;;;7.72;3.05;;;;;;;;;;5041620;28;20036;-83
2022/07/31 04:07:56;;;;;;;4.07;2.90;;;;;;;;;;5040928;28;20030;-84
2022/07/31 04:10:22;;;;;;;4.78;3.15;;;;;;;;;;5041020;28;20037;-84
2022/07/31 04:12:47;;;;;;;3.63;2.60;;;;;;;;;;5040001;28;20463;-84
2022/07/31 04:15:13;;;;;;;4.78;2.90;;;;;;;;;;5041342;28;20060;-84
2022/07/31 04:17:38;;;;;;;4.38;3.15;;;;;;;;;;5040751;28;20083;-83
2022/07/31 04:20:04;;;;;;;3.05;2.70;;;;;;;;;;5040462;28;20036;-83
2022/07/31 04:22:30;;;;;;;4.45;3.10;;;;;;;;;;5040492;28;20032;-84
2022/07/31 04:24:55;;;;;;;4.25;2.70;;;;;;;;;;5040587;28;20093;-84
2022/07/31 04:27:20;;;;;;;6.10;2.75;;;;;;;;;;5040353;28;20036;-83
2022/07/31 04:29:48;;;;;;;5.32;2.97;;;;;;;;;;5040021;28;20021;-83
2022/07/31 04:32:13;;;;;;;4.00;2.63;;;;;;;;;;5023157;28;20052;-84
2022/07/31 04:34:39;;;;;;;4.13;2.80;;;;;;;;;;5041112;28;20494;-84
2022/07/31 04:37:04;;;;;;;4.47;2.75;;;;;;;;;;5040744;28;20029;-83
2022/07/31 04:39:30;;;;;;;2.97;2.70;;;;;;;;;;5022741;28;20022;-83
2022/07/31 04:41:56;;;;;;;4.45;2.70;;;;;;;;;;5042184;28;20041;-84
2022/07/31 04:44:22;;;;;;;3.60;2.70;;;;;;;;;;5041893;28;20087;-84
2022/07/31 04:46:47;;;;;;;3.63;3.00;;;;;;;;;;5030600;28;20034;-83
2022/07/31 04:49:13;;;;;;;7.05;2.75;;;;;;;;;;5040532;28;20032;-83
2022/07/31 04:51:40;;;;;;;3.53;2.58;;;;;;;;;;5028895;28;20018;-83
2022/07/31 04:54:05;;;;;;;3.65;2.72;;;;;;;;;;5046867;28;20083;-84
2022/07/31 04:56:36;;;;;;;3.30;2.85;;;;;;;;;;5029112;28;20029;-85
2022/07/31 04:59:14;;;;;;;5.03;2.90;;;;;;;;;;5029203;28;20021;-85
2022/07/31 05:01:40;;;;;;;5.10;2.97;;;;;;;;;;5046535;28;20079;-84
2022/07/31 05:04:07;;;;;;;5.35;3.17;;;;;;;;;;5029483;28;20441;-83
2022/07/31 05:06:42;;;;;;;4.25;3.30;;;;;;;;;;5046352;28;20091;-84
2022/07/31 05:09:11;;;;;;;3.30;3.00;;;;;;;;;;5044447;28;20523;-85
2022/07/31 05:11:37;;;;;;;4.47;3.35;;;;;;;;;;5028605;28;20028;-84
2022/07/31 05:14:04;;;;;;;4.22;2.63;;;;;;;;;;5045225;28;20032;-83
2022/07/31 05:16:30;;;;;;;4.88;3.40;;;;;;;;;;5044840;28;20025;-84
2022/07/31 05:18:56;;;;;;;4.45;2.63;;;;;;;;;;5060558;28;20172;-85
2022/07/31 05:21:22;;;;;;;5.80;3.20;;;;;;;;;;5052983;28;20024;-84
2022/07/31 05:23:48;;;;;;;3.50;2.60;;;;;;;;;;5053618;28;20021;-84
2022/07/31 05:26:15;;;;;;;3.63;2.88;;;;;;;;;;5051076;28;20099;-84
2022/07/31 05:28:41;;;;;;;3.42;2.90;;;;;;;;;;5043032;28;20033;-84
2022/07/31 05:31:07;;;;;;;3.85;3.05;;;;;;;;;;5044701;28;20470;-84
2022/07/31 05:33:32;;;;;;;9.10;3.35;;;;;;;;;;5050195;28;20052;-84
2022/07/31 05:35:59;;;;;;;4.75;3.05;;;;;;;;;;5061102;28;20080;-84
2022/07/31 05:38:25;;;;;;;4.38;2.83;;;;;;;;;;5080072;28;20028;-85
2022/07/31 05:40:50;;;;;;;5.45;3.15;;;;;;;;;;5080710;28;20056;-84
2022/07/31 05:43:15;;;;;;;3.25;2.80;;;;;;;;;;5080767;28;20029;-84
2022/07/31 05:45:41;;;;;;;6.07;3.20;;;;;;;;;;5080502;28;20021;-84
2022/07/31 05:48:06;;;;;;;3.33;2.90;;;;;;;;;;5072714;28;20021;-84
2022/07/31 05:50:35;;;;;;;6.22;3.08;;;;;;;;;;5060014;28;20029;-84
2022/07/31 05:53:00;;;;;;;3.42;2.47;;;;;;;;;;5076631;28;20029;-84
2022/07/31 05:55:26;;;;;;;2.97;2.70;;;;;;;;;;5059133;28;20049;-83
2022/07/31 05:57:52;;;;;;;6.72;2.90;;;;;;;;;;5048810;28;20029;-84
2022/07/31 06:00:19;;;;;;;7.10;3.13;;;;;;;;;;5041709;28;20030;-84
2022/07/31 06:02:45;;;;;;;5.72;2.92;;;;;;;;;;5040867;28;20030;-84
2022/07/31 06:05:10;;;;;;;5.28;2.78;;;;;;;;;;5041450;28;20022;-84
2022/07/31 06:07:36;;;;;;;5.35;2.70;;;;;;;;;;5043107;28;20020;-83
2022/07/31 06:10:02;;;;;;;4.05;2.70;;;;;;;;;;5052935;28;20502;-84
2022/07/31 06:12:27;;;;;;;3.70;2.67;;;;;;;;;;5031605;28;20033;-84
2022/07/31 06:14:53;;;;;;;4.13;2.78;;;;;;;;;;5048383;28;20029;-84
2022/07/31 06:17:18;;;;;;;3.80;2.70;;;;;;;;;;5043273;28;20021;-85
2022/07/31 06:19:43;;;;;;;8.23;2.70;;;;;;;;;;5047159;28;20403;-84
2022/07/31 06:22:09;;;;;;;5.82;2.90;;;;;;;;;;5044348;28;20044;-84
2022/07/31 06:24:34;;;;;;;3.67;2.60;;;;;;;;;;5034174;28;20033;-83
2022/07/31 06:27:00;;;;;;;4.93;2.60;;;;;;;;;;5016900;28;20037;-84
2022/07/31 06:29:27;;;;;;;5.05;2.70;;;;;;;;;;5012903;28;20048;-83
2022/07/31 06:31:53;;;;;;;3.83;2.90;;;;;;;;;;5054155;28;20564;-83
2022/07/31 06:34:18;;;;;;;4.70;2.58;;;;;;;;;;5040216;28;20495;-83
2022/07/31 06:36:44;;;;;;;3.20;2.50;;;;;;;;;;5039504;28;20220;-83
2022/07/31 06:39:09;;;;;;;3.25;2.50;;;;;;;;;;5024333;28;20028;-82
2022/07/31 06:41:43;;;;;;;3.63;2.42;;;;;;;;;;5023085;28;20034;-85
2022/07/31 06:44:09;;;;;;;4.32;2.80;;;;;;;;;;5039147;28;20040;-81
2022/07/31 06:46:36;;;;;;;4.90;2.78;;;;;;;;;;5049784;28;20056;-86
2022/07/31 06:49:01;;;;;;;3.15;2.40;;;;;;;;;;5040061;28;20053;-86
2022/07/31 06:51:27;;;;;;;4.75;2.80;;;;;;;;;;5028613;28;20029;-81
2022/07/31 06:53:52;;;;;;;3.67;2.30;;;;;;;;;;5045523;28;20120;-83
2022/07/31 06:56:18;;;;;;;5.45;2.90;;;;;;;;;;5021800;28;20426;-80
2022/07/31 06:58:43;;;;;;;4.05;2.65;;;;;;;;;;5052248;28;20029;-82
2022/07/31 07:01:09;;;;;;;3.33;2.67;;;;;;;;;;5040741;28;20025;-82
2022/07/31 07:03:34;;;;;;;5.65;2.67;;;;;;;;;;5045168;28;20061;-81
2022/07/31 07:05:59;;;;;;;3.88;2.58;;;;;;;;;;5060241;28;20025;-80
2022/07/31 07:08:25;;;;;;;3.17;2.47;;;;;;;;;;5047678;28;20069;-80
2022/07/31 07:10:50;;;;;;;3.72;2.35;;;;;;;;;;5063535;28;20090;-80
2022/07/31 07:13:15;;;;;;;3.97;2.55;;;;;;;;;;5063584;28;20025;-81
2022/07/31 07:15:41;;;;;;;3.80;2.63;;;;;;;;;;5064118;28;20036;-81
2022/07/31 07:18:06;;;;;;;4.32;2.33;;;;;;;;;;5041906;28;20036;-81
2022/07/31 07:20:32;;;;;;;3.30;2.65;;;;;;;;;;5030268;28;20028;-81
2022/07/31 07:22:57;;;;;;;4.97;2.40;;;;;;;;;;5039952;28;20064;-82
2022/07/31 07:25:22;;;;;;;5.75;2.35;;;;;;;;;;5038997;28;20028;-82
2022/07/31 07:27:48;;;;;;;5.25;2.35;;;;;;;;;;5044059;28;20037;-84
2022/07/31 07:30:13;;;;;;;5.03;2.20;;;;;;;;;;5044817;28;20099;-83
2022/07/31 07:32:39;;;;;;;5.18;2.85;;;;;;;;;;5044390;28;20021;-82
2022/07/31 07:35:05;;;;;;;4.18;2.63;;;;;;;;;;5046610;28;20029;-84
2022/07/31 07:37:31;;;;;;;4.57;2.70;;;;;;;;;;5029959;28;20021;-84
2022/07/31 07:39:57;;;;;;;4.47;2.47;;;;;;;;;;5038085;28;20055;-84
2022/07/31 07:42:23;;;;;;;5.15;3.13;;;;;;;;;;5044969;28;20029;-83
2022/07/31 07:44:48;;;;;;;6.78;2.80;;;;;;;;;;5042618;28;20021;-80
2022/07/31 07:47:13;;;;;;;5.85;2.20;;;;;;;;;;5041051;28;20017;-84
2022/07/31 07:49:39;;;;;;;2.88;2.40;;;;;;;;;;5051338;28;20503;-83
2022/07/31 07:52:04;;;;;;;9.75;2.80;;;;;;;;;;5035284;28;20025;-83
2022/07/31 07:54:29;;;;;;;3.00;2.13;;;;;;;;;;5039598;28;20035;-82
2022/07/31 07:56:55;;;;;;;2.58;1.98;;;;;;;;;;5039250;28;20482;-80
2022/07/31 07:59:21;;;;;;;3.95;2.20;;;;;;;;;;5038567;28;20427;-82
2022/07/31 08:01:46;;;;;;;3.40;2.30;;;;;;;;;;5030574;28;20035;-83
2022/07/31 08:04:11;;;;;;;3.97;2.50;;;;;;;;;;5044136;28;20028;-85
2022/07/31 08:06:37;;;;;;;6.95;2.50;;;;;;;;;;5034727;28;20464;-82
2022/07/31 08:09:02;;;;;;;3.25;2.42;;;;;;;;;;5050221;28;20410;-84
2022/07/31 08:11:28;;;;;;;3.55;2.17;;;;;;;;;;5040418;28;20056;-84
2022/07/31 08:13:54;;;;;;;4.22;2.20;;;;;;;;;;5034129;28;20032;-81
2022/07/31 08:16:20;;;;;;;2.63;2.10;;;;;;;;;;5034506;28;20041;-83
2022/07/31 08:18:47;;;;;;;4.75;2.25;;;;;;;;;;5044667;28;20032;-82
2022/07/31 08:21:13;;;;;;;4.07;2.33;;;;;;;;;;5044716;28;20375;-87
2022/07/31 08:23:38;;;;;;;2.13;1.88;;;;;;;;;;5030650;28;20059;-81
2022/07/31 08:26:03;;;;;;;5.13;2.20;;;;;;;;;;5041184;28;20037;-82
2022/07/31 08:28:29;;;;;;;3.10;2.05;;;;;;;;;;5036431;28;20495;-82
2022/07/31 08:31:09;;;;;;;2.90;2.10;;;;;;;;;;5042317;28;20029;-84
2022/07/31 08:33:34;;;;;;;3.83;2.05;;;;;;;;;;5028018;28;20040;-84
2022/07/31 08:36:00;;;;;;;2.70;2.13;;;;;;;;;;5016927;28;20033;-85
2022/07/31 08:38:26;;;;;;;4.55;2.28;;;;;;;;;;5038343;28;20023;-81
2022/07/31 08:40:51;;;;;;;2.97;2.05;;;;;;;;;;5032419;28;20036;-83
2022/07/31 08:43:17;;;;;;;3.78;2.20;;;;;;;;;;5056747;28;20482;-84
2022/07/31 08:45:43;;;;;;;5.10;2.20;;;;;;;;;;5052116;28;20380;-87
2022/07/31 08:48:10;;;;;;;2.33;2.00;;;;;;;;;;5028244;28;20029;-85
2022/07/31 08:50:38;;;;;;;3.60;2.17;;;;;;;;;;5030055;28;20108;-82
2022/07/31 08:53:05;;;;;;;4.00;1.80;;;;;;;;;;5038628;28;20029;-84
2022/07/31 08:55:32;;;;;;;4.97;2.08;;;;;;;;;;5050852;28;20390;-83
2022/07/31 08:57:57;;;;;;;3.63;2.28;;;;;;;;;;5041744;28;20033;-83
2022/07/31 09:00:23;;;;;;;3.28;1.90;;;;;;;;;;5040443;28;20033;-84
2022/07/31 09:02:48;;;;;;;2.90;2.15;;;;;;;;;;5049997;28;20055;-84
2022/07/31 09:05:15;;;;;;;6.30;2.00;;;;;;;;;;5043165;28;20068;-86
2022/07/31 09:07:41;;;;;;;3.95;1.98;;;;;;;;;;5047417;28;20048;-84
2022/07/31 09:10:19;;;;;;;2.47;1.60;;;;;;;;;;5041624;28;20033;-83
2022/07/31 09:12:44;;;;;;;3.35;1.70;;;;;;;;;;5012221;28;20036;-83
2022/07/31 09:15:27;;;;;;;2.92;1.80;;;;;;;;;;5037119;28;20037;-83
2022/07/31 09:17:53;;;;;;;1.75;1.60;;;;;;;;;;5044785;28;20017;-82
2022/07/31 09:20:24;;;;;;;4.13;1.80;;;;;;;;;;5047282;28;20037;-82
2022/07/31 09:23:23;;;;;;;3.17;2.08;;;;;;;;;;5047436;28;20018;-81
2022/07/31 09:26:00;;;;;;;2.45;1.60;;;;;;;;;;5013366;28;20035;-84
2022/07/31 09:28:34;;;;;;;2.20;1.70;;;;;;;;;;5041642;28;20024;-82
2022/07/31 09:31:00;;;;;;;2.47;1.75;;;;;;;;;;5039486;28;20040;-83
2022/07/31 09:33:28;;;;;;;2.20;1.52;;;;;;;;;;5038027;28;20033;-82
2022/07/31 09:35:54;;;;;;;4.97;2.05;;;;;;;;;;5047818;28;20084;-83
2022/07/31 09:38:19;;;;;;;2.13;1.65;;;;;;;;;;5041143;28;20031;-83
2022/07/31 09:40:45;;;;;;;4.97;2.00;;;;;;;;;;5046700;28;20044;-83
2022/07/31 09:43:15;;;;;;;3.28;1.70;;;;;;;;;;5045963;28;20037;-83
2022/07/31 09:45:45;;;;;;;1.50;1.40;;;;;;;;;;5050034;28;20032;-83
2022/07/31 09:48:13;;;;;;;7.32;1.67;;;;;;;;;;5046080;28;20033;-84
2022/07/31 09:50:51;;;;;;;2.83;1.52;;;;;;;;;;5050746;28;20028;-83
2022/07/31 09:53:18;;;;;;;2.85;1.60;;;;;;;;;;5045171;28;20056;-81
2022/07/31 09:55:54;;;;;;;2.88;1.30;;;;;;;;;;5051061;28;20117;-83
2022/07/31 09:58:21;;;;;;;2.55;1.25;;;;;;;;;;5044680;28;20078;-83
2022/07/31 10:00:48;;;;;;;2.53;1.52;;;;;;;;;;5027409;28;20049;-84
2022/07/31 10:03:17;;;;;;;2.15;1.63;;;;;;;;;;5038463;28;20029;-86
2022/07/31 10:05:44;;;;;;;4.85;1.70;;;;;;;;;;5044707;28;20033;-85
2022/07/31 10:08:11;;;;;;;1.33;1.23;;;;;;;;;;5041876;28;20025;-83
2022/07/31 10:10:37;;;;;;;1.70;1.40;;;;;;;;;;5047154;28;20115;-85
2022/07/31 10:13:07;;;;;;;1.10;1.00;;;;;;;;;;5043659;28;20041;-84
2022/07/31 10:15:35;;;;;;;1.38;1.20;;;;;;;;;;5044673;28;20018;-83
2022/07/31 10:18:01;;;;;;;2.33;1.52;;;;;;;;;;5050295;28;20029;-83
2022/07/31 10:20:29;;;;;;;1.75;1.40;;;;;;;;;;5028101;28;20039;-83
2022/07/31 10:23:05;;;;;;;4.32;1.27;;;;;;;;;;5049955;28;20414;-85
2022/07/31 10:25:34;;;;;;;6.18;1.45;;;;;;;;;;5051695;28;20029;-84
2022/07/31 10:28:00;;;;;;;1.67;1.40;;;;;;;;;;5039613;28;20057;-83
2022/07/31 10:30:26;;;;;;;3.97;1.52;;;;;;;;;;5047401;28;20040;-83
2022/07/31 10:32:52;;;;;;;2.58;1.40;;;;;;;;;;5037602;28;20028;-81
2022/07/31 10:35:19;;;;;;;1.20;1.10;;;;;;;;;;5047090;28;20072;-82
2022/07/31 10:38:05;;;;;;;3.08;1.30;;;;;;;;;;5044873;28;20029;-84
2022/07/31 10:40:52;;;;;;;1.45;1.20;;;;;;;;;;5029569;28;20044;-84
2022/07/31 10:43:25;;;;;;;1.20;1.10;;;;;;;;;;5039867;28;20033;-83
2022/07/31 10:45:54;;;;;;;4.18;1.42;;;;;;;;;;5040961;28;20025;-84
2022/07/31 10:48:21;;;;;;;3.70;1.35;;;;;;;;;;5040292;28;20033;-84
2022/07/31 10:51:08;;;;;;;1.45;1.33;;;;;;;;;;5044817;28;20382;-84
2022/07/31 10:53:34;;;;;;;2.85;1.20;;;;;;;;;;5036817;28;20045;-84
2022/07/31 10:56:04;;;;;;;1.58;1.45;;;;;;;;;;5040811;28;20045;-85
2022/07/31 10:58:29;;;;;;;1.67;1.08;;;;;;;;;;5032233;28;20033;-84
2022/07/31 11:01:08;;;;;;;1.40;1.30;;;;;;;;;;5045038;28;20287;-83
2022/07/31 11:03:45;;;;;;;1.80;1.50;;;;;;;;;;5037626;28;20476;-83
2022/07/31 11:06:11;;;;;;;2.45;1.50;;;;;;;;;;5039456;28;20025;-82
2022/07/31 11:08:44;;;;;;;1.73;1.27;;;;;;;;;;5037413;28;20041;-82
2022/07/31 11:11:10;;;;;;;1.40;1.30;;;;;;;;;;5044726;28;20045;-80
2022/07/31 11:13:50;;;;;;;2.10;1.20;;;;;;;;;;5040559;28;20478;-81
2022/07/31 11:16:16;;;;;;;1.42;1.33;;;;;;;;;;5045912;28;20545;-83
2022/07/31 11:18:44;;;;;;;4.68;1.40;;;;;;;;;;5046641;28;20523;-85
2022/07/31 11:21:10;;;;;;;1.30;1.20;;;;;;;;;;5042124;28;20083;-84
2022/07/31 11:23:36;;;;;;;1.45;1.25;;;;;;;;;;5031958;28;20032;-86
2022/07/31 11:26:06;;;;;;;1.90;1.50;;;;;;;;;;5010534;28;20041;-85
2022/07/31 11:28:33;;;;;;;2.37;1.30;;;;;;;;;;5025456;28;20439;-84
2022/07/31 11:31:04;;;;;;;1.60;1.08;;;;;;;;;;5029118;28;20037;-84
2022/07/31 11:33:42;;;;;;;5.65;1.17;;;;;;;;;;5030251;28;20111;-86
2022/07/31 11:36:14;;;;;;;1.70;1.23;;;;;;;;;;5029153;28;20033;-83
2022/07/31 11:38:44;;;;;;;3.20;1.40;;;;;;;;;;5027842;28;20033;-83
2022/07/31 11:41:10;;;;;;;1.08;1.08;;;;;;;;;;5034218;28;20472;-84
2022/07/31 11:43:39;;;;;;;2.17;1.50;;;;;;;;;;5031209;28;20113;-83
2022/07/31 11:46:05;;;;;;;3.85;1.50;;;;;;;;;;5028965;28;20057;-82
2022/07/31 11:48:31;;;;;;;1.35;1.25;;;;;;;;;;5030018;28;20048;-85
2022/07/31 11:50:58;;;;;;;1.15;1.10;;;;;;;;;;5033990;28;20151;-82
2022/07/31 11:53:24;;;;;;;1.42;1.15;;;;;;;;;;5014013;28;20033;-81
2022/07/31 11:55:58;;;;;;;1.80;1.58;;;;;;;;;;5030411;28;20026;-83
2022/07/31 11:58:25;;;;;;;2.65;1.30;;;;;;;;;;5027602;28;20104;-82
2022/07/31 12:00:55;;;;;;;3.28;1.40;;;;;;;;;;5031550;28;20029;-83
2022/07/31 12:03:30;;;;;;;3.72;1.50;;;;;;;;;;5025994;28;20021;-82
2022/07/31 12:05:56;;;;;;;3.83;1.20;;;;;;;;;;5029592;28;20044;-85
2022/07/31 12:08:23;;;;;;;1.85;1.33;;;;;;;;;;5025080;28;20029;-83
2022/07/31 12:10:52;;;;;;;1.92;1.38;;;;;;;;;;5026526;28;20083;-84
2022/07/31 12:13:19;;;;;;;1.45;1.02;;;;;;;;;;5023810;28;20056;-84
2022/07/31 12:15:55;;;;;;;2.58;1.40;;;;;;;;;;5022942;28;20065;-83
2022/07/31 12:18:20;;;;;;;1.25;1.15;;;;;;;;;;5019143;28;20030;-84
2022/07/31 12:20:59;;;;;;;1.58;1.42;;;;;;;;;;5019693;28;20025;-85
2022/07/31 12:23:25;;;;;;;3.25;1.60;;;;;;;;;;5020587;28;20114;-83
2022/07/31 12:25:51;;;;;;;2.42;1.70;;;;;;;;;;5017520;28;20037;-83
2022/07/31 12:28:17;;;;;;;5.07;1.48;;;;;;;;;;5019318;28;20668;-84
2022/07/31 12:30:44;;;;;;;2.53;1.50;;;;;;;;;;5000716;28;20029;-85
2022/07/31 12:33:11;;;;;;;3.30;1.45;;;;;;;;;;5022473;28;20025;-85
2022/07/31 12:35:41;;;;;;;2.28;1.10;;;;;;;;;;5021602;28;20025;-85
2022/07/31 12:38:07;;;;;;;3.20;1.50;;;;;;;;;;5019310;28;20851;-84
2022/07/31 12:40:34;;;;;;;3.00;1.30;;;;;;;;;;5021087;28;20021;-85
2022/07/31 12:43:00;;;;;;;2.40;1.42;;;;;;;;;;5026201;28;20037;-85
2022/07/31 12:45:34;;;;;;;2.15;1.20;;;;;;;;;;5044380;28;20048;-83
2022/07/31 12:48:00;;;;;;;1.52;1.27;;;;;;;;;;5023781;28;20026;-82
2022/07/31 12:50:28;;;;;;;5.25;1.50;;;;;;;;;;5043341;28;20024;-83
2022/07/31 12:52:57;;;;;;;1.58;1.20;;;;;;;;;;5046909;28;20022;-82
2022/07/31 12:55:22;;;;;;;3.28;1.10;;;;;;;;;;5044504;28;20032;-86
2022/07/31 12:57:47;;;;;;;1.23;1.10;;;;;;;;;;5019339;28;20026;-83
2022/07/31 13:00:13;;;;;;;1.30;1.20;;;;;;;;;;5022803;28;20032;-86
2022/07/31 13:02:41;;;;;;;1.30;1.20;;;;;;;;;;5011808;28;20084;-86
2022/07/31 13:05:07;;;;;;;1.95;1.40;;;;;;;;;;5028481;28;20030;-83
2022/07/31 13:07:33;;;;;;;1.08;0.95;;;;;;;;;;5028304;28;20030;-85
2022/07/31 13:09:58;;;;;;;2.35;1.20;;;;;;;;;;5029853;28;20052;-84
2022/07/31 13:12:23;;;;;;;4.72;1.80;;;;;;;;;;5028021;28;20163;-88
2022/07/31 13:14:49;;;;;;;1.08;1.02;;;;;;;;;;5011236;28;20510;-87
2022/07/31 13:17:14;;;;;;;1.05;1.00;;;;;;;;;;5031769;28;20395;-87
2022/07/31 13:19:39;;;;;;;2.47;1.30;;;;;;;;;;5030087;28;20021;-87
2022/07/31 13:22:05;;;;;;;2.05;1.00;;;;;;;;;;5040659;28;20037;-89
2022/07/31 13:24:30;;;;;;;0.93;0.80;;;;;;;;;;5014904;28;20017;-84
2022/07/31 13:26:57;;;;;;;1.27;1.17;;;;;;;;;;5028408;28;20025;-88
2022/07/31 13:29:23;;;;;;;3.15;1.23;;;;;;;;;;5023465;28;20484;-86
2022/07/31 13:31:48;;;;;;;1.63;1.52;;;;;;;;;;5039385;28;20020;-87
2022/07/31 13:34:17;;;;;;;1.48;1.17;;;;;;;;;;5020428;28;20021;-88
2022/07/31 13:36:42;;;;;;;1.50;1.30;;;;;;;;;;5015917;28;20034;-88
2022/07/31 13:39:08;;;;;;;1.08;0.98;;;;;;;;;;5022673;28;20036;-88
2022/07/31 13:41:34;;;;;;;2.13;1.10;;;;;;;;;;5042531;28;20025;-87
2022/07/31 13:44:00;;;;;;;1.50;1.20;;;;;;;;;;5043478;28;20052;-86
2022/07/31 13:46:26;;;;;;;1.58;1.10;;;;;;;;;;5041162;28;20094;-87
2022/07/31 13:48:54;;;;;;;2.40;1.17;;;;;;;;;;5037571;28;20017;-87
2022/07/31 13:51:20;;;;;;;1.92;1.20;;;;;;;;;;5052402;28;20036;-87
2022/07/31 13:53:48;;;;;;;2.38;1.00;;;;;;;;;;5044378;28;20025;-87
2022/07/31 13:56:14;;;;;;;1.73;1.10;;;;;;;;;;5046094;28;20400;-86
2022/07/31 13:58:39;;;;;;;1.27;1.17;;;;;;;;;;5038708;28;20040;-88
2022/07/31 14:01:05;;;;;;;1.55;1.25;;;;;;;;;;5047099;28;20446;-87
2022/07/31 14:03:30;;;;;;;2.25;1.25;;;;;;;;;;5047700;28;20022;-88
2022/07/31 14:05:56;;;;;;;1.20;1.10;;;;;;;;;;5051884;28;20020;-87
2022/07/31 14:08:22;;;;;;;2.63;1.30;;;;;;;;;;5041732;28;20026;-87
2022/07/31 14:10:48;;;;;;;2.67;1.10;;;;;;;;;;5041670;28;20056;-87
2022/07/31 14:13:18;;;;;;;1.42;1.10;;;;;;;;;;5037786;28;20102;-86
2022/07/31 14:15:44;;;;;;;1.83;1.40;;;;;;;;;;5036678;28;20033;-86
2022/07/31 14:18:10;;;;;;;1.48;1.10;;;;;;;;;;5031174;28;20021;-87
2022/07/31 14:20:35;;;;;;;2.33;1.27;;;;;;;;;;5032523;28;20030;-85
2022/07/31 14:23:03;;;;;;;2.03;1.17;;;;;;;;;;5034490;28;20156;-85
2022/07/31 14:25:29;;;;;;;1.35;1.20;;;;;;;;;;5036069;28;20067;-86
2022/07/31 14:27:54;;;;;;;1.27;1.15;;;;;;;;;;5032688;28;20052;-86
2022/07/31 14:30:20;;;;;;;2.17;1.40;;;;;;;;;;5034198;28;20515;-89
2022/07/31 14:32:46;;;;;;;1.50;1.40;;;;;;;;;;5016926;28;20096;-87
2022/07/31 14:35:12;;;;;;;1.77;1.42;;;;;;;;;;5037171;28;20028;-87
2022/07/31 14:37:38;;;;;;;2.35;1.60;;;;;;;;;;5029791;28;20124;-88
2022/07/31 14:40:04;;;;;;;1.98;1.10;;;;;;;;;;5032919;28;20029;-87
2022/07/31 14:42:30;;;;;;;2.15;1.20;;;;;;;;;;5025772;28;20021;-86
2022/07/31 14:44:57;;;;;;;2.10;1.30;;;;;;;;;;5022834;28;20095;-86